Aérodrome :
LOGIN :

S'inscrire | Disclaimer

   EN    FR    IT 

 










Légende :    VFR   VFR Marginal   IFR   IFR Intensif   IFR Très Intensif
Visi : 
Plafond : 
>= 8 km
>= 3000ft
5 à 8 km
1000 à 3000 ft
1500m à 5 km
500 à 1000 ft
800 à 1500m
200 à 500 ft
< 800m
< 200 ft
Symboles :   Orages  Brouillard  Fortes neiges  Fortes précipitations  Vent > 20 kt
SIGMETs :   Divers  Orages  Givrage  Turbulence  Onde Orograph.  Cendres Volcan.







- Altitude de l'aérodrome : 392 ft
- Code IATA : CDG
- Voir les cartes d'approche


LFPG - Paris-Aeroport Charles De Gaulle

DERNIER METAR :
  • 231730Z 19013KT 9999 BKN007 BKN014 11/10 Q1022 NOSIG

METARs EXPIRÉS :
  • 231700Z 19012KT 9999 BKN007 10/10 Q1022 NOSIG
  • 231630Z 20010KT 9999 BKN007 10/09 Q1023 NOSIG
  • 231600Z 19009KT 9999 BKN007 10/09 Q1023 NOSIG
  • 231530Z 19012KT 9999 BKN006 10/09 Q1022 TEMPO 4000 -RADZ
  • 231500Z 20011KT 9999 BKN006 10/09 Q1023 TEMPO 4000 -RADZ

TAF TAF LFPG
Valide du 23 à 18h jusqu'au 25 à 00h UTC


231700Z 2318/2424 19010KT 9999 BKN012
PROB40
TEMPO 2318/2409 BKN006
PROB40
TEMPO 2400/2405 2000 BR BKN002
BECMG 2408/2410 20015G25KT
BECMG 2411/2413 BKN015 TX12/2413Z TN11/2318Z
ATIS : +33 1 48 62 10 92
Pas de NOTAMs connus pour ce terrain.



MET'MAP, la Météo Aéronautique d'un coup d'oeil ! - Copyright ORBIFLY Décembre 2007 - Disclaimer

ORBIFLY MET'MAP TEAM :

Programmation & Développement : Alexandra Zaïnal
Conception & Développement : Baudouin d'Aumeries
Co-Programmation & Développement : Marc-Olivier Méhu
Soutien technique & logistique : Manuel Goepfert

Contact : metmap@orbifly.com




SOURCES & CREDITS :

   NOAA